createdAt,value
2023-03-24T00:01:14.879Z,99.90
2023-03-24T00:03:46.105Z,99.90
2023-03-24T00:06:30.921Z,99.90
2023-03-24T00:09:07.226Z,99.90
2023-03-24T00:11:47.619Z,99.90
2023-03-24T00:14:34.638Z,99.90
2023-03-24T00:17:19.021Z,99.90
2023-03-24T00:19:58.581Z,99.90
2023-03-24T00:23:04.306Z,99.90
2023-03-24T00:26:03.890Z,99.90
2023-03-24T00:28:52.044Z,99.90
2023-03-24T00:31:28.160Z,99.90
2023-03-24T00:34:12.714Z,99.90
2023-03-24T00:36:55.056Z,99.90
2023-03-24T00:39:53.880Z,99.90
2023-03-24T00:42:45.542Z,99.90
2023-03-24T00:45:20.526Z,99.90
2023-03-24T00:48:13.133Z,99.90
2023-03-24T00:51:09.811Z,99.90
2023-03-24T00:53:59.658Z,99.90
2023-03-24T00:56:56.297Z,99.90
2023-03-24T00:59:31.758Z,99.90
2023-03-24T01:02:20.869Z,99.90
2023-03-24T01:05:02.027Z,99.90
2023-03-24T01:07:53.863Z,99.90
2023-03-24T01:10:38.792Z,99.90
2023-03-24T01:13:21.756Z,99.90
2023-03-24T01:16:01.600Z,99.90
2023-03-24T01:18:46.638Z,99.90
2023-03-24T01:21:20.253Z,99.90
2023-03-24T01:24:04.573Z,99.90
2023-03-24T01:26:36.907Z,99.90
2023-03-24T01:29:34.450Z,99.90
2023-03-24T01:32:21.065Z,99.90
2023-03-24T01:35:20.738Z,99.90
2023-03-24T01:38:11.919Z,99.90
2023-03-24T01:40:58.788Z,99.90
2023-03-24T01:43:47.610Z,99.90
2023-03-24T01:47:06.238Z,99.90
2023-03-24T01:49:49.774Z,99.90
2023-03-24T01:52:47.795Z,99.90
2023-03-24T01:55:53.591Z,99.90
2023-03-24T01:58:36.908Z,99.90
2023-03-24T02:01:27.175Z,99.90
2023-03-24T02:04:47.900Z,99.90
2023-03-24T02:07:32.423Z,99.90
2023-03-24T02:10:17.037Z,99.90
2023-03-24T02:13:18.498Z,99.90
2023-03-24T02:16:06.001Z,99.90
2023-03-24T02:18:49.044Z,99.90
2023-03-24T02:22:19.015Z,99.90
2023-03-24T02:25:38.291Z,99.90
2023-03-24T02:28:48.654Z,99.90
2023-03-24T02:32:32.145Z,99.90
2023-03-24T02:36:01.653Z,99.90
2023-03-24T02:39:26.029Z,99.90
2023-03-24T02:42:21.838Z,99.90
2023-03-24T02:45:14.209Z,99.90
2023-03-24T02:48:12.580Z,99.90
2023-03-24T02:50:57.214Z,99.90
2023-03-24T02:54:03.682Z,99.90
2023-03-24T02:56:57.976Z,99.90
2023-03-24T03:00:04.356Z,99.90
2023-03-24T03:03:03.714Z,99.90
2023-03-24T03:05:48.453Z,99.90
2023-03-24T03:08:23.009Z,99.90
2023-03-24T03:11:10.542Z,99.90
2023-03-24T03:14:09.428Z,99.90
2023-03-24T03:17:16.373Z,99.90
2023-03-24T03:20:16.678Z,99.90
2023-03-24T03:23:06.165Z,99.90
2023-03-24T03:26:06.308Z,99.90
2023-03-24T03:28:51.605Z,99.90
2023-03-24T03:31:33.992Z,99.90
2023-03-24T03:34:36.296Z,99.90
2023-03-24T03:37:22.957Z,99.90
2023-03-24T03:40:06.941Z,99.90
2023-03-24T03:42:39.061Z,99.90
2023-03-24T03:45:21.092Z,99.90
2023-03-24T03:48:08.588Z,99.90
2023-03-24T03:50:41.637Z,99.90
2023-03-24T03:53:33.994Z,99.90
2023-03-24T03:56:14.127Z,99.90
2023-03-24T03:59:05.839Z,99.90
2023-03-24T04:02:06.843Z,99.90
2023-03-24T04:05:30.323Z,99.90
2023-03-24T04:08:37.789Z,99.90
2023-03-24T04:11:54.078Z,99.90
2023-03-24T04:15:13.448Z,99.90
2023-03-24T04:18:32.388Z,99.90
2023-03-24T04:22:06.416Z,99.90
2023-03-24T04:25:08.302Z,99.90
2023-03-24T04:27:51.312Z,99.90
2023-03-24T04:30:40.268Z,99.90
2023-03-24T04:33:22.649Z,99.90
2023-03-24T04:36:06.978Z,99.90
2023-03-24T04:38:57.857Z,99.90
2023-03-24T04:41:53.381Z,99.90
2023-03-24T04:44:33.676Z,99.90
2023-03-24T04:47:44.347Z,99.90
2023-03-24T04:50:47.032Z,99.90
2023-03-24T04:53:41.741Z,99.90
2023-03-24T04:56:42.667Z,99.90
2023-03-24T04:59:34.842Z,99.90
2023-03-24T05:02:12.119Z,99.90
2023-03-24T05:05:22.738Z,99.90
2023-03-24T05:08:03.578Z,99.90
2023-03-24T05:10:42.185Z,99.90
2023-03-24T05:13:16.877Z,99.90
2023-03-24T05:16:06.265Z,99.90
2023-03-24T05:19:16.210Z,99.90
2023-03-24T05:22:08.756Z,99.90
2023-03-24T05:24:49.604Z,99.90
2023-03-24T05:27:43.639Z,99.90
2023-03-24T05:30:30.482Z,99.90
2023-03-24T05:33:32.046Z,99.90
2023-03-24T05:36:07.070Z,99.90
2023-03-24T05:38:48.523Z,99.90
2023-03-24T05:41:31.133Z,99.90
2023-03-24T05:44:13.992Z,99.90
2023-03-24T05:46:56.514Z,99.90
2023-03-24T05:49:48.312Z,99.90
2023-03-24T05:52:20.883Z,99.90
2023-03-24T05:55:12.096Z,99.90
2023-03-24T05:58:06.267Z,99.90
2023-03-24T06:01:10.545Z,99.90
2023-03-24T06:03:52.170Z,99.90
2023-03-24T06:06:49.405Z,99.90
2023-03-24T06:09:24.332Z,99.90
2023-03-24T06:11:56.111Z,99.90
2023-03-24T06:14:39.078Z,99.90
2023-03-24T06:17:25.494Z,99.90
2023-03-24T06:20:06.011Z,99.90
2023-03-24T06:23:07.690Z,99.90
2023-03-24T06:25:51.469Z,99.90
2023-03-24T06:28:26.465Z,99.90
2023-03-24T06:31:02.520Z,99.90
2023-03-24T06:34:05.422Z,99.90
2023-03-24T06:36:51.324Z,99.90
2023-03-24T06:39:29.214Z,99.90
2023-03-24T06:42:22.769Z,99.90
2023-03-24T06:45:14.347Z,99.90
2023-03-24T06:47:45.826Z,99.90
2023-03-24T06:50:30.332Z,99.90
2023-03-24T06:53:17.002Z,99.90
2023-03-24T06:55:52.858Z,99.90
2023-03-24T06:58:37.329Z,99.90
2023-03-24T07:01:24.921Z,99.90
2023-03-24T07:04:04.446Z,99.90
2023-03-24T07:06:58.543Z,99.90
2023-03-24T07:09:38.757Z,99.90
2023-03-24T07:12:26.900Z,99.90
2023-03-24T07:15:11.872Z,99.90
2023-03-24T07:18:05.000Z,99.90
2023-03-24T07:21:06.629Z,99.90
2023-03-24T07:23:55.861Z,99.90
2023-03-24T07:26:43.244Z,99.90
2023-03-24T07:29:31.581Z,99.90
2023-03-24T07:32:21.980Z,99.90
2023-03-24T07:35:03.816Z,99.90
2023-03-24T07:37:44.487Z,99.90
2023-03-24T07:40:45.150Z,99.90
2023-03-24T07:43:31.302Z,99.90
2023-03-24T07:46:28.607Z,99.90
2023-03-24T07:49:18.872Z,99.90
2023-03-24T07:52:19.441Z,99.90
2023-03-24T07:55:05.323Z,99.90
2023-03-24T07:58:05.362Z,99.90
2023-03-24T08:01:00.132Z,99.90
2023-03-24T08:04:05.520Z,99.90
2023-03-24T08:07:33.157Z,99.90
2023-03-24T08:10:16.193Z,99.90
2023-03-24T08:13:04.830Z,99.90
2023-03-24T08:15:41.563Z,99.90
2023-03-24T08:18:33.952Z,99.90
2023-03-24T08:21:42.124Z,99.90
2023-03-24T08:24:14.330Z,99.90
2023-03-24T08:26:46.915Z,99.90
2023-03-24T08:29:40.563Z,99.90
2023-03-24T08:32:14.481Z,99.90
2023-03-24T08:35:19.254Z,99.90
2023-03-24T08:38:07.790Z,99.90
2023-03-24T08:40:50.174Z,99.90
2023-03-24T08:43:41.400Z,99.90
2023-03-24T08:46:20.099Z,99.90
2023-03-24T08:48:50.116Z,99.90
2023-03-24T08:51:32.302Z,99.90
2023-03-24T08:54:23.666Z,99.90
2023-03-24T08:57:19.058Z,99.90
2023-03-24T09:00:04.734Z,99.90
2023-03-24T09:02:51.358Z,99.90
2023-03-24T09:05:36.475Z,99.90
2023-03-24T09:08:40.621Z,99.90
2023-03-24T09:11:22.290Z,99.90
2023-03-24T09:14:02.640Z,99.90
2023-03-24T09:16:50.511Z,99.90
2023-03-24T09:19:46.393Z,99.90
2023-03-24T09:22:17.870Z,99.90
2023-03-24T09:24:50.910Z,99.90
2023-03-24T09:27:36.034Z,99.90
2023-03-24T09:30:18.316Z,99.90
2023-03-24T09:32:59.360Z,99.90
2023-03-24T09:36:00.285Z,99.90
2023-03-24T09:38:47.990Z,99.90
2023-03-24T09:41:35.004Z,99.90
2023-03-24T09:44:29.814Z,99.90
2023-03-24T09:47:10.961Z,99.90
2023-03-24T09:50:09.071Z,99.90
2023-03-24T09:53:11.171Z,99.90
2023-03-24T09:56:15.344Z,99.90
2023-03-24T09:58:57.955Z,99.90
2023-03-24T10:01:52.749Z,99.90
2023-03-24T10:04:35.556Z,99.90
2023-03-24T10:07:36.037Z,99.90
2023-03-24T10:10:33.339Z,99.90
2023-03-24T10:13:15.689Z,99.90
2023-03-24T10:15:57.134Z,99.90
2023-03-24T10:18:44.796Z,99.90
2023-03-24T10:21:39.853Z,99.90
2023-03-24T10:24:26.883Z,99.90
2023-03-24T10:27:14.677Z,99.90
2023-03-24T10:29:53.611Z,99.90
2023-03-24T10:32:37.735Z,99.90
2023-03-24T10:35:29.466Z,99.90
2023-03-24T10:38:22.920Z,99.90
2023-03-24T10:41:13.384Z,99.90
2023-03-24T10:44:07.223Z,99.90
2023-03-24T10:46:53.977Z,99.90
2023-03-24T10:49:36.998Z,99.90
2023-03-24T10:52:29.838Z,99.90
2023-03-24T10:55:24.128Z,99.90
2023-03-24T10:58:28.361Z,99.90
2023-03-24T11:01:25.190Z,99.90
2023-03-24T11:04:06.476Z,99.90
2023-03-24T11:07:22.863Z,99.90
2023-03-24T11:10:19.572Z,99.90
2023-03-24T11:13:12.835Z,99.90
2023-03-24T11:15:59.605Z,99.90
2023-03-24T11:19:03.205Z,99.90
2023-03-24T11:21:46.182Z,99.90
2023-03-24T11:24:24.367Z,99.90
2023-03-24T11:27:20.758Z,99.90
2023-03-24T11:29:59.044Z,99.90
2023-03-24T11:32:52.336Z,99.90
2023-03-24T11:35:41.433Z,99.90
2023-03-24T11:38:22.494Z,99.90
2023-03-24T11:41:02.751Z,99.90
2023-03-24T11:43:55.018Z,99.90
2023-03-24T11:46:27.044Z,99.90
2023-03-24T11:49:21.082Z,99.90
2023-03-24T11:52:04.786Z,99.90
2023-03-24T11:54:49.969Z,99.90
2023-03-24T11:57:54.008Z,99.90
2023-03-24T12:00:53.799Z,99.90
2023-03-24T12:04:09.339Z,99.90
2023-03-24T12:07:07.494Z,99.90
2023-03-24T12:09:59.862Z,99.90
2023-03-24T12:12:53.915Z,99.90
2023-03-24T12:15:47.859Z,99.90
2023-03-24T12:18:52.217Z,99.90
2023-03-24T12:21:47.325Z,99.90
2023-03-24T12:24:42.902Z,99.90
2023-03-24T12:27:49.440Z,99.90
2023-03-24T12:30:32.925Z,99.90
2023-03-24T12:33:56.078Z,99.90
2023-03-24T12:36:50.217Z,99.90
2023-03-24T12:39:39.106Z,99.90
2023-03-24T12:42:14.722Z,99.90
2023-03-24T12:45:36.289Z,99.90
2023-03-24T12:48:50.492Z,99.90
2023-03-24T12:51:46.867Z,99.90
2023-03-24T12:54:46.510Z,99.90
2023-03-24T12:57:30.363Z,99.90
2023-03-24T13:00:33.942Z,99.90
2023-03-24T13:03:33.393Z,99.90
2023-03-24T13:06:29.529Z,99.90
2023-03-24T13:09:26.731Z,99.90
2023-03-24T13:12:22.717Z,99.90
2023-03-24T13:15:24.903Z,99.90
2023-03-24T13:18:17.077Z,99.90
2023-03-24T13:20:56.879Z,99.90
2023-03-24T13:24:03.168Z,99.90
2023-03-24T13:26:43.026Z,99.90
2023-03-24T13:29:55.499Z,99.90
2023-03-24T13:32:38.763Z,99.90
2023-03-24T13:35:23.589Z,99.90
2023-03-24T13:38:04.784Z,99.90
2023-03-24T13:40:46.485Z,99.90
2023-03-24T13:43:28.583Z,99.90
2023-03-24T13:46:16.567Z,99.90
2023-03-24T13:49:00.217Z,99.90
2023-03-24T13:51:38.497Z,99.90
2023-03-24T13:54:17.556Z,99.90
2023-03-24T13:57:00.313Z,99.90
2023-03-24T14:00:19.035Z,99.90
2023-03-24T14:03:01.846Z,99.90
2023-03-24T14:06:09.202Z,99.90
2023-03-24T14:09:02.715Z,99.90
2023-03-24T14:12:13.696Z,99.90
2023-03-24T14:15:19.976Z,99.90
2023-03-24T14:17:58.833Z,99.90
2023-03-24T14:21:05.244Z,99.90
2023-03-24T14:23:45.043Z,99.90
2023-03-24T14:26:17.592Z,99.90
2023-03-24T14:28:59.502Z,99.90
2023-03-24T14:31:36.852Z,99.90
2023-03-24T14:34:18.960Z,99.90
2023-03-24T14:37:07.984Z,99.90
2023-03-24T14:39:49.208Z,99.90
2023-03-24T14:43:00.832Z,99.90
2023-03-24T14:46:02.262Z,99.90
2023-03-24T14:49:01.414Z,99.90
2023-03-24T14:51:44.768Z,99.90
2023-03-24T14:54:25.841Z,99.90
2023-03-24T14:57:08.415Z,99.90
2023-03-24T15:00:12.237Z,99.90
2023-03-24T15:02:51.085Z,99.90
2023-03-24T15:05:31.769Z,99.90
2023-03-24T15:08:21.854Z,99.90
2023-03-24T15:11:09.438Z,99.90
2023-03-24T15:14:13.632Z,99.90
2023-03-24T15:16:57.469Z,99.90
2023-03-24T15:20:00.180Z,99.90
2023-03-24T15:22:44.224Z,99.90
2023-03-24T15:25:20.246Z,99.90
2023-03-24T15:28:01.217Z,99.90
2023-03-24T15:30:33.817Z,99.90
2023-03-24T15:33:17.398Z,99.90
2023-03-24T15:35:59.479Z,99.90
2023-03-24T15:38:51.318Z,99.90
2023-03-24T15:41:46.458Z,99.90
2023-03-24T15:44:32.971Z,99.90
2023-03-24T15:47:27.851Z,99.90
2023-03-24T15:50:19.641Z,99.90
2023-03-24T15:53:07.046Z,99.90
2023-03-24T15:56:19.631Z,99.90
2023-03-24T15:58:58.749Z,99.60
2023-03-24T16:01:45.483Z,96.40
2023-03-24T16:04:48.882Z,96.90
2023-03-24T16:07:32.424Z,97.20
2023-03-24T16:10:40.183Z,96.70
2023-03-24T16:13:30.669Z,94.60
2023-03-24T16:16:44.576Z,95.10
2023-03-24T16:19:16.879Z,94.80
2023-03-24T16:21:49.410Z,96.70
2023-03-24T16:24:38.207Z,97.00
2023-03-24T16:27:26.363Z,97.50
2023-03-24T16:30:08.620Z,96.80
2023-03-24T16:32:52.558Z,97.90
2023-03-24T16:35:24.970Z,98.40
2023-03-24T16:38:15.190Z,99.00
2023-03-24T16:40:52.654Z,99.40
2023-03-24T16:43:38.808Z,99.60
2023-03-24T16:46:22.076Z,99.90
2023-03-24T16:49:24.119Z,99.90
2023-03-24T16:52:02.252Z,99.90
2023-03-24T16:54:44.183Z,99.90
2023-03-24T16:57:40.946Z,99.90
2023-03-24T17:00:34.575Z,99.90
2023-03-24T17:03:25.745Z,99.90
2023-03-24T17:06:00.354Z,99.90
2023-03-24T17:08:32.221Z,99.90
2023-03-24T17:11:05.405Z,99.90
2023-03-24T17:13:44.959Z,99.90
2023-03-24T17:16:29.868Z,99.90
2023-03-24T17:19:05.298Z,99.90
2023-03-24T17:22:00.674Z,99.90
2023-03-24T17:24:37.061Z,99.90
2023-03-24T17:27:22.143Z,99.90
2023-03-24T17:30:13.833Z,99.90
2023-03-24T17:33:01.005Z,99.90
2023-03-24T17:35:55.423Z,99.90
2023-03-24T17:38:58.630Z,99.60
2023-03-24T17:41:31.923Z,99.90
2023-03-24T17:44:04.234Z,99.90
2023-03-24T17:46:48.736Z,99.90
2023-03-24T17:49:29.860Z,98.70
2023-03-24T17:52:37.988Z,99.00
2023-03-24T17:55:10.771Z,99.60
2023-03-24T17:58:08.655Z,99.50
2023-03-24T18:00:45.232Z,99.90
2023-03-24T18:03:37.437Z,99.90
2023-03-24T18:06:44.086Z,99.90
2023-03-24T18:09:36.356Z,99.90
2023-03-24T18:12:09.831Z,99.90
2023-03-24T18:14:50.442Z,99.90
2023-03-24T18:17:22.045Z,99.90
2023-03-24T18:19:56.826Z,99.90
2023-03-24T18:22:41.431Z,99.90
2023-03-24T18:25:24.041Z,99.90
2023-03-24T18:28:22.909Z,99.90
2023-03-24T18:31:13.118Z,99.90
2023-03-24T18:33:58.242Z,99.90
2023-03-24T18:37:01.924Z,99.90
2023-03-24T18:39:44.567Z,99.90
2023-03-24T18:42:17.871Z,99.90
2023-03-24T18:44:52.069Z,99.90
2023-03-24T18:47:30.100Z,99.90
2023-03-24T18:50:16.991Z,99.90
2023-03-24T18:53:16.258Z,99.90
2023-03-24T18:55:58.333Z,99.90
2023-03-24T18:58:46.724Z,99.90
2023-03-24T19:01:47.587Z,99.90
2023-03-24T19:04:35.643Z,99.90
2023-03-24T19:07:14.975Z,99.90
2023-03-24T19:10:07.790Z,99.90
2023-03-24T19:13:15.858Z,99.90
2023-03-24T19:15:55.521Z,99.90
2023-03-24T19:18:39.487Z,99.90
2023-03-24T19:21:13.052Z,99.90
2023-03-24T19:24:01.507Z,99.90
2023-03-24T19:27:01.865Z,99.90
2023-03-24T19:29:48.722Z,99.90
2023-03-24T19:32:32.646Z,99.90
2023-03-24T19:35:07.568Z,99.90
2023-03-24T19:37:48.549Z,99.90
2023-03-24T19:40:36.729Z,99.90
2023-03-24T19:43:12.546Z,99.90
2023-03-24T19:46:10.196Z,99.90
2023-03-24T19:48:51.197Z,99.90
2023-03-24T19:51:42.481Z,99.90
2023-03-24T19:54:39.043Z,99.90
2023-03-24T19:57:22.714Z,99.90
2023-03-24T20:00:19.884Z,99.90
2023-03-24T20:03:02.339Z,99.90
2023-03-24T20:05:48.660Z,99.90
2023-03-24T20:08:29.276Z,99.90
2023-03-24T20:11:12.296Z,99.90
2023-03-24T20:14:22.593Z,99.90
2023-03-24T20:16:58.461Z,99.90
2023-03-24T20:19:57.309Z,99.90
2023-03-24T20:22:37.838Z,99.90
2023-03-24T20:25:33.593Z,99.90
2023-03-24T20:28:44.875Z,99.90
2023-03-24T20:31:26.816Z,99.90
2023-03-24T20:34:22.624Z,99.90
2023-03-24T20:37:02.730Z,99.90
2023-03-24T20:39:44.027Z,99.90
2023-03-24T20:42:29.715Z,99.90
2023-03-24T20:45:21.450Z,99.90
2023-03-24T20:48:31.005Z,99.90
2023-03-24T20:51:03.450Z,99.90
2023-03-24T20:54:12.267Z,99.90
2023-03-24T20:57:08.488Z,99.90
2023-03-24T21:00:10.595Z,99.90
2023-03-24T21:02:42.524Z,99.90
2023-03-24T21:05:22.750Z,99.90
2023-03-24T21:08:05.778Z,99.90
2023-03-24T21:10:44.272Z,99.90
2023-03-24T21:13:36.925Z,99.90
2023-03-24T21:16:19.779Z,99.90
2023-03-24T21:19:10.775Z,99.90
2023-03-24T21:21:49.717Z,99.90
2023-03-24T21:24:28.316Z,99.90
2023-03-24T21:27:01.194Z,99.90
2023-03-24T21:29:40.218Z,99.90
2023-03-24T21:32:14.097Z,99.90
